Medicine Lake Lodge, California
Current Conditions -  °F | °C
As of 12:53 AM on Wednesday 22 Oct 2014 (Local Time) from KLMT Reporting Station
Overcast Overcast  
Wind Chill: 39°   Ceiling: 12000
Heat Index: 42°   Visibility: 10mi
Dew Point: 36°   Wind: 5mph
Humidity: 79%   Direction: 130°SE
Pressure: 30.04"   Gusts: NA
Location:  41.7207°N, 121.463°W
Report Text: KLMT 220753Z AUTO 13004KT 10SM SCT090 OVC120 06/02 A3004 RMK AO2 SLP165 T00560022 401170006
Loading
Personal Weather Stations






























Interactive Weather Map
Tropical Storm Tracking
New forecast layout! Learn more

10-Day Weather Forecast

Advertisements
Track Severe Weather on mobile